Time;durP1;ratioP1;P1;durP2;ratioP2;P2;SDS_P1;SDS_P2;PMS_P1;PMS_P2;Temp;Humidity;BMP_temperature;BMP_pressure;BME280_temperature;BME280_humidity;BME280_pressure;Samples;Min_cycle;Max_cycle;Signal;HPM_P1;HPM_P2
2022/09/23 00:01:54;;;;;;;5.10;2.70;;;;;;;;;;106802;1295;33457;-32
2022/09/23 00:04:23;;;;;;;4.50;2.20;;;;;;;;;;106788;1298;33741;-32
2022/09/23 00:06:52;;;;;;;4.80;2.50;;;;;;;;;;106494;1299;33572;-32
2022/09/23 00:09:21;;;;;;;4.50;2.50;;;;;;;;;;106586;1295;34173;-32
2022/09/23 00:11:50;;;;;;;4.60;2.30;;;;;;;;;;106597;1295;33893;-33
2022/09/23 00:14:20;;;;;;;4.40;2.40;;;;;;;;;;106613;1300;33768;-33
2022/09/23 00:16:49;;;;;;;4.80;2.60;;;;;;;;;;106607;1294;34372;-33
2022/09/23 00:19:18;;;;;;;4.60;2.20;;;;;;;;;;106691;1299;33539;-33
2022/09/23 00:21:48;;;;;;;4.50;2.40;;;;;;;;;;106688;1294;33539;-31
2022/09/23 00:24:18;;;;;;;4.70;2.30;;;;;;;;;;106710;1295;33831;-32
2022/09/23 00:26:47;;;;;;;5.30;2.60;;;;;;;;;;106644;1294;33950;-32
2022/09/23 00:29:16;;;;;;;4.50;2.30;;;;;;;;;;106510;1295;146158;-32
2022/09/23 00:31:46;;;;;;;5.00;2.80;;;;;;;;;;106618;1295;33842;-32
2022/09/23 00:34:15;;;;;;;4.60;2.70;;;;;;;;;;106633;1295;33972;-31
2022/09/23 00:36:44;;;;;;;5.60;2.70;;;;;;;;;;106631;1295;34406;-31
2022/09/23 00:39:14;;;;;;;4.30;2.50;;;;;;;;;;106677;1294;33927;-31
2022/09/23 00:41:43;;;;;;;4.30;2.70;;;;;;;;;;106689;1294;33827;-31
2022/09/23 00:44:30;;;;;;;4.70;2.60;;;;;;;;;;106691;1302;33709;-32
2022/09/23 00:46:59;;;;;;;4.60;2.30;;;;;;;;;;106636;1294;33798;-32
2022/09/23 00:49:30;;;;;;;5.20;2.70;;;;;;;;;;106617;1300;34021;-33
2022/09/23 00:52:02;;;;;;;5.40;2.80;;;;;;;;;;106647;1295;33598;-33
2022/09/23 00:54:34;;;;;;;4.60;2.50;;;;;;;;;;106604;1295;33968;-33
2022/09/23 00:57:04;;;;;;;4.50;2.60;;;;;;;;;;106601;1294;34294;-33
2022/09/23 00:59:34;;;;;;;4.50;2.50;;;;;;;;;;106694;1294;34234;-33
2022/09/23 01:02:03;;;;;;;5.90;2.60;;;;;;;;;;106715;1294;33410;-32
2022/09/23 01:04:33;;;;;;;4.80;2.40;;;;;;;;;;106701;1294;33547;-32
2022/09/23 01:07:02;;;;;;;5.40;2.50;;;;;;;;;;106633;1294;34234;-32
2022/09/23 01:09:31;;;;;;;4.60;2.50;;;;;;;;;;106614;1295;33798;-31
2022/09/23 01:12:09;;;;;;;4.80;2.30;;;;;;;;;;106651;1297;33148;-31
2022/09/23 01:14:43;;;;;;;4.50;2.70;;;;;;;;;;106577;1295;34415;-32
2022/09/23 01:17:16;;;;;;;5.10;2.70;;;;;;;;;;106683;1300;33508;-31
2022/09/23 01:19:56;;;;;;;4.80;2.50;;;;;;;;;;106790;1294;33464;-32
2022/09/23 01:22:30;;;;;;;4.80;2.70;;;;;;;;;;106774;1298;33606;-32
2022/09/23 01:25:08;;;;;;;5.00;2.60;;;;;;;;;;106609;1300;33934;-32
2022/09/23 01:27:49;;;;;;;4.80;2.60;;;;;;;;;;106667;1295;34181;-32
2022/09/23 01:30:25;;;;;;;5.70;2.80;;;;;;;;;;106641;1300;33920;-32
2022/09/23 01:33:00;;;;;;;4.60;2.60;;;;;;;;;;106631;1300;33731;-32
2022/09/23 01:35:32;;;;;;;5.10;2.80;;;;;;;;;;106628;1295;34116;-32
2022/09/23 01:38:10;;;;;;;5.80;2.70;;;;;;;;;;106679;1295;34054;-32
2022/09/23 01:40:45;;;;;;;4.60;2.60;;;;;;;;;;106799;1295;34646;-32
2022/09/23 01:43:23;;;;;;;4.50;2.50;;;;;;;;;;106788;1295;34086;-32
2022/09/23 01:45:55;;;;;;;4.90;2.70;;;;;;;;;;106768;1298;33764;-32
2022/09/23 01:48:27;;;;;;;4.70;2.60;;;;;;;;;;106697;1295;33821;-32
2022/09/23 01:51:00;;;;;;;5.20;2.70;;;;;;;;;;106659;1295;34244;-32
2022/09/23 01:53:36;;;;;;;4.60;2.40;;;;;;;;;;106662;1300;33572;-33
2022/09/23 01:56:09;;;;;;;4.80;2.60;;;;;;;;;;106644;1301;33435;-33
2022/09/23 01:58:41;;;;;;;4.70;2.60;;;;;;;;;;106730;1298;33576;-33
2022/09/23 02:01:14;;;;;;;4.70;2.50;;;;;;;;;;106805;1298;33347;-33
2022/09/23 02:03:45;;;;;;;4.90;2.60;;;;;;;;;;106820;1294;33828;-33
2022/09/23 02:06:17;;;;;;;4.30;2.50;;;;;;;;;;106804;1294;33569;-33
2022/09/23 02:08:50;;;;;;;4.40;2.40;;;;;;;;;;106649;1295;34148;-33
2022/09/23 02:11:27;;;;;;;4.50;2.50;;;;;;;;;;106636;1295;34118;-32
2022/09/23 02:14:00;;;;;;;4.40;2.40;;;;;;;;;;106611;1295;34330;-32
2022/09/23 02:16:31;;;;;;;4.90;2.70;;;;;;;;;;106676;1295;33806;-32
2022/09/23 02:19:04;;;;;;;4.90;2.50;;;;;;;;;;106667;1295;33833;-32
2022/09/23 02:21:35;;;;;;;5.70;2.50;;;;;;;;;;106719;1300;33746;-32
2022/09/23 02:24:08;;;;;;;4.40;2.60;;;;;;;;;;106710;1294;34254;-32
2022/09/23 02:26:44;;;;;;;5.20;2.60;;;;;;;;;;106713;1297;34008;-32
2022/09/23 02:29:18;;;;;;;4.50;2.80;;;;;;;;;;106609;1291;33416;-32
2022/09/23 02:31:53;;;;;;;4.50;2.50;;;;;;;;;;106675;1295;33876;-32
2022/09/23 02:34:28;;;;;;;4.90;2.70;;;;;;;;;;106662;1295;33881;-32
2022/09/23 02:37:02;;;;;;;5.10;2.70;;;;;;;;;;106632;1295;33802;-32
2022/09/23 02:39:36;;;;;;;4.80;2.70;;;;;;;;;;106635;1299;33162;-32
2022/09/23 02:42:08;;;;;;;4.60;2.60;;;;;;;;;;106703;1295;33354;-32
2022/09/23 02:44:39;;;;;;;4.70;2.80;;;;;;;;;;106726;1299;33317;-32
2022/09/23 02:47:09;;;;;;;4.50;2.70;;;;;;;;;;106710;1294;33821;-32
2022/09/23 02:49:38;;;;;;;5.00;2.80;;;;;;;;;;106604;1296;33929;-32
2022/09/23 02:52:07;;;;;;;4.60;2.50;;;;;;;;;;106613;1303;33597;-31
2022/09/23 02:54:37;;;;;;;5.00;2.80;;;;;;;;;;106625;1295;33863;-31
2022/09/23 02:57:07;;;;;;;4.70;2.60;;;;;;;;;;106637;1296;32401;-31
2022/09/23 02:59:36;;;;;;;5.20;2.60;;;;;;;;;;106637;1294;33930;-31
2022/09/23 03:02:13;;;;;;;4.60;2.60;;;;;;;;;;106689;1294;33779;-31
2022/09/23 03:04:46;;;;;;;4.60;2.70;;;;;;;;;;106713;1299;33620;-32
2022/09/23 03:07:19;;;;;;;5.00;3.00;;;;;;;;;;106687;1297;33246;-32
2022/09/23 03:09:51;;;;;;;4.70;2.50;;;;;;;;;;106648;1296;34403;-32
2022/09/23 03:12:30;;;;;;;4.20;2.50;;;;;;;;;;106701;1295;33980;-32
2022/09/23 03:15:05;;;;;;;5.60;3.00;;;;;;;;;;106688;1295;33335;-32
2022/09/23 03:17:37;;;;;;;4.30;2.70;;;;;;;;;;106656;1298;34129;-32
2022/09/23 03:20:08;;;;;;;4.90;2.80;;;;;;;;;;106711;1294;33936;-32
2022/09/23 03:22:40;;;;;;;4.90;2.80;;;;;;;;;;106853;1295;33966;-32
2022/09/23 03:25:12;;;;;;;4.60;2.90;;;;;;;;;;106804;1295;33861;-32
2022/09/23 03:27:42;;;;;;;4.50;2.50;;;;;;;;;;106840;1298;34207;-32
2022/09/23 03:30:13;;;;;;;4.90;2.50;;;;;;;;;;106699;1302;33814;-32
2022/09/23 03:32:45;;;;;;;5.10;2.90;;;;;;;;;;106631;1295;33947;-31
2022/09/23 03:35:14;;;;;;;5.10;2.90;;;;;;;;;;106540;1299;33445;-31
2022/09/23 03:37:47;;;;;;;5.50;2.70;;;;;;;;;;106576;1299;34257;-31
2022/09/23 03:40:15;;;;;;;;;;;;;;;;;;106647;1298;33779;-31
2022/09/23 03:42:47;;;;;;;4.80;3.00;;;;;;;;;;106767;1294;33367;-31
2022/09/23 03:45:19;;;;;;;5.30;3.00;;;;;;;;;;106783;1295;33999;-31
2022/09/23 03:47:48;;;;;;;4.60;2.40;;;;;;;;;;106786;1295;34038;-31
2022/09/23 03:50:19;;;;;;;4.20;2.50;;;;;;;;;;106653;1295;34400;-31
2022/09/23 03:52:49;;;;;;;4.60;2.60;;;;;;;;;;106617;1295;33961;-31
2022/09/23 03:55:20;;;;;;;4.80;2.70;;;;;;;;;;106591;1295;33814;-31
2022/09/23 03:57:49;;;;;;;4.70;2.60;;;;;;;;;;106575;1301;33844;-30
2022/09/23 04:00:22;;;;;;;4.90;2.70;;;;;;;;;;106604;1299;33531;-31
2022/09/23 04:02:50;;;;;;;;;;;;;;;;;;106786;1301;33442;-31
2022/09/23 04:05:20;;;;;;;4.90;2.80;;;;;;;;;;106765;1295;33949;-31
2022/09/23 04:07:49;;;;;;;4.50;2.50;;;;;;;;;;106513;1298;33939;-31
2022/09/23 04:10:19;;;;;;;5.30;2.70;;;;;;;;;;106692;1295;34091;-31
2022/09/23 04:12:48;;;;;;;4.80;2.60;;;;;;;;;;106603;1295;33880;-31
2022/09/23 04:15:20;;;;;;;4.80;2.60;;;;;;;;;;106583;1295;34243;-31
2022/09/23 04:17:49;;;;;;;;;;;;;;;;;;106622;1302;34007;-31
2022/09/23 04:20:19;;;;;;;4.50;2.70;;;;;;;;;;106600;1295;34361;-31
2022/09/23 04:22:48;;;;;;;4.70;2.60;;;;;;;;;;106791;1295;34404;-31
2022/09/23 04:25:17;;;;;;;4.30;2.30;;;;;;;;;;106780;1295;33933;-31
2022/09/23 04:27:46;;;;;;;4.20;2.60;;;;;;;;;;106767;1298;33683;-31
2022/09/23 04:30:17;;;;;;;5.00;2.60;;;;;;;;;;106708;1302;33662;-31
2022/09/23 04:32:46;;;;;;;5.00;2.80;;;;;;;;;;106598;1295;45778;-31
2022/09/23 04:35:15;;;;;;;5.10;2.70;;;;;;;;;;106575;1298;33849;-31
2022/09/23 04:37:47;;;;;;;4.80;2.70;;;;;;;;;;106551;1299;33401;-31
2022/09/23 04:40:17;;;;;;;5.10;3.20;;;;;;;;;;106567;1295;34093;-31
2022/09/23 04:42:46;;;;;;;5.80;3.20;;;;;;;;;;106705;1294;34370;-31
2022/09/23 04:45:16;;;;;;;4.60;2.70;;;;;;;;;;106786;1296;33849;-31
2022/09/23 04:47:46;;;;;;;4.60;2.90;;;;;;;;;;106746;1295;33599;-31
2022/09/23 04:50:16;;;;;;;4.50;2.60;;;;;;;;;;106490;1298;33986;-31
2022/09/23 04:52:45;;;;;;;5.20;2.70;;;;;;;;;;106547;1295;34114;-31
2022/09/23 04:55:14;;;;;;;5.30;2.80;;;;;;;;;;106563;1295;33813;-30
2022/09/23 04:57:44;;;;;;;5.10;3.00;;;;;;;;;;106563;1302;33852;-31
2022/09/23 05:00:15;;;;;;;4.90;3.00;;;;;;;;;;106548;1301;33832;-31
2022/09/23 05:02:45;;;;;;;5.70;2.50;;;;;;;;;;106710;1295;33818;-31
2022/09/23 05:05:19;;;;;;;5.70;2.90;;;;;;;;;;106770;1295;33836;-31
2022/09/23 05:07:49;;;;;;;5.00;2.70;;;;;;;;;;106805;1295;33981;-31
2022/09/23 05:10:18;;;;;;;5.00;2.70;;;;;;;;;;106764;1295;33951;-31
2022/09/23 05:12:47;;;;;;;4.50;2.60;;;;;;;;;;106596;1296;33836;-31
2022/09/23 05:15:17;;;;;;;4.80;2.70;;;;;;;;;;106593;1291;33940;-31
2022/09/23 05:17:46;;;;;;;5.10;2.70;;;;;;;;;;106587;1301;33326;-31
2022/09/23 05:20:18;;;;;;;5.30;2.70;;;;;;;;;;106573;1297;34488;-31
2022/09/23 05:22:47;;;;;;;6.70;2.40;;;;;;;;;;106672;1298;33176;-31
2022/09/23 05:25:16;;;;;;;4.70;2.70;;;;;;;;;;106764;1298;33827;-31
2022/09/23 05:27:46;;;;;;;5.60;2.70;;;;;;;;;;106535;1303;33512;-31
2022/09/23 05:30:15;;;;;;;5.90;2.80;;;;;;;;;;106767;1295;33990;-31
2022/09/23 05:32:44;;;;;;;4.50;2.40;;;;;;;;;;106642;1299;34946;-31
2022/09/23 05:35:14;;;;;;;5.70;2.60;;;;;;;;;;106590;1295;33852;-31
2022/09/23 05:37:44;;;;;;;5.00;2.70;;;;;;;;;;106578;1295;33856;-31
2022/09/23 05:40:13;;;;;;;5.50;2.60;;;;;;;;;;106568;1292;34434;-31
2022/09/23 05:42:42;;;;;;;4.90;2.60;;;;;;;;;;106598;1295;34120;-31
2022/09/23 05:45:11;;;;;;;4.50;2.70;;;;;;;;;;106761;1296;33971;-31
2022/09/23 05:47:40;;;;;;;4.50;2.60;;;;;;;;;;106757;1300;33665;-31
2022/09/23 05:50:11;;;;;;;4.60;2.80;;;;;;;;;;106742;1299;33814;-31
2022/09/23 05:52:40;;;;;;;5.20;2.60;;;;;;;;;;106668;1294;33899;-31
2022/09/23 05:55:10;;;;;;;4.70;2.80;;;;;;;;;;106596;1295;33956;-31
2022/09/23 05:57:39;;;;;;;5.10;2.90;;;;;;;;;;106588;1301;34364;-31
2022/09/23 06:00:10;;;;;;;4.50;2.60;;;;;;;;;;106554;1292;34301;-31
2022/09/23 06:02:39;;;;;;;4.60;2.50;;;;;;;;;;106618;1301;33444;-31
2022/09/23 06:05:10;;;;;;;5.10;2.90;;;;;;;;;;106790;1294;34164;-31
2022/09/23 06:07:40;;;;;;;4.90;3.00;;;;;;;;;;106802;1294;33060;-31
2022/09/23 06:10:09;;;;;;;4.70;2.70;;;;;;;;;;106636;1295;34022;-31
2022/09/23 06:12:38;;;;;;;4.30;2.50;;;;;;;;;;106761;1295;33918;-31
2022/09/23 06:15:12;;;;;;;4.70;2.60;;;;;;;;;;106645;1298;34324;-31
2022/09/23 06:17:41;;;;;;;4.40;2.70;;;;;;;;;;106635;1303;33443;-31
2022/09/23 06:20:11;;;;;;;4.90;2.70;;;;;;;;;;106639;1300;34250;-31
2022/09/23 06:22:40;;;;;;;5.40;2.80;;;;;;;;;;106614;1295;34039;-31
2022/09/23 06:25:13;;;;;;;5.30;2.60;;;;;;;;;;106671;1295;34093;-31
2022/09/23 06:27:43;;;;;;;4.40;2.50;;;;;;;;;;106656;1296;34085;-31
2022/09/23 06:30:15;;;;;;;5.00;2.50;;;;;;;;;;106651;1300;33411;-31
2022/09/23 06:32:50;;;;;;;5.20;2.70;;;;;;;;;;106628;1300;33641;-31
2022/09/23 06:35:20;;;;;;;5.60;2.50;;;;;;;;;;106627;1302;41617;-31
2022/09/23 06:37:49;;;;;;;5.10;2.80;;;;;;;;;;106600;1291;33384;-31
2022/09/23 06:40:19;;;;;;;5.70;2.80;;;;;;;;;;106633;1299;33874;-31
2022/09/23 06:42:56;;;;;;;4.60;2.60;;;;;;;;;;106643;1299;34179;-31
2022/09/23 06:45:26;;;;;;;6.00;2.90;;;;;;;;;;106692;1295;42843;-31
2022/09/23 06:47:56;;;;;;;5.70;3.00;;;;;;;;;;106515;1301;33580;-31
2022/09/23 06:50:26;;;;;;;5.70;2.90;;;;;;;;;;106775;1298;34151;-31
2022/09/23 06:52:55;;;;;;;5.90;3.30;;;;;;;;;;106766;1298;33938;-31
2022/09/23 06:55:26;;;;;;;6.50;4.00;;;;;;;;;;106568;1300;33993;-31
2022/09/23 06:57:57;;;;;;;6.40;3.10;;;;;;;;;;106596;1302;33587;-31
2022/09/23 07:00:28;;;;;;;5.50;3.40;;;;;;;;;;106605;1300;33614;-31
2022/09/23 07:02:57;;;;;;;5.80;3.20;;;;;;;;;;106605;1295;33979;-31
2022/09/23 07:05:26;;;;;;;5.80;3.60;;;;;;;;;;106721;1295;33957;-31
2022/09/23 07:07:55;;;;;;;6.60;3.70;;;;;;;;;;106750;1295;33955;-31
2022/09/23 07:10:27;;;;;;;5.90;3.20;;;;;;;;;;106755;1300;33793;-31
2022/09/23 07:13:00;;;;;;;5.40;3.00;;;;;;;;;;106718;1301;33901;-31
2022/09/23 07:15:29;;;;;;;6.60;3.30;;;;;;;;;;106607;1295;33886;-31
2022/09/23 07:17:59;;;;;;;6.40;3.00;;;;;;;;;;106588;1295;34214;-31
2022/09/23 07:20:28;;;;;;;6.70;3.10;;;;;;;;;;106622;1300;34172;-31
2022/09/23 07:22:58;;;;;;;5.80;3.20;;;;;;;;;;106510;1301;34440;-31
2022/09/23 07:25:28;;;;;;;6.30;3.70;;;;;;;;;;106668;1295;33928;-31
2022/09/23 07:27:57;;;;;;;6.70;3.70;;;;;;;;;;106744;1302;33421;-31
2022/09/23 07:30:26;;;;;;;5.70;3.20;;;;;;;;;;106756;1295;33476;-31
2022/09/23 07:32:55;;;;;;;8.00;4.30;;;;;;;;;;106640;1298;33809;-30
2022/09/23 07:35:26;;;;;;;6.80;3.60;;;;;;;;;;106706;1299;33995;-30
2022/09/23 07:37:55;;;;;;;5.90;3.70;;;;;;;;;;106775;1298;35608;-31
2022/09/23 07:40:29;;;;;;;6.00;3.50;;;;;;;;;;106703;1300;33472;-30
2022/09/23 07:42:58;;;;;;;6.60;3.70;;;;;;;;;;106755;1294;34641;-31
2022/09/23 07:45:27;;;;;;;7.40;3.50;;;;;;;;;;106740;1298;33808;-30
2022/09/23 07:47:56;;;;;;;6.60;3.50;;;;;;;;;;106671;1293;33434;-30
2022/09/23 07:50:25;;;;;;;6.10;4.10;;;;;;;;;;106658;1302;33422;-31
2022/09/23 07:52:54;;;;;;;6.70;3.80;;;;;;;;;;106706;1297;34053;-31
2022/09/23 07:55:23;;;;;;;6.60;4.20;;;;;;;;;;106515;1302;33943;-31
2022/09/23 07:57:52;;;;;;;7.00;3.70;;;;;;;;;;106456;1300;34249;-31
2022/09/23 08:00:21;;;;;;;7.60;4.50;;;;;;;;;;106530;1295;33425;-31
2022/09/23 08:02:51;;;;;;;7.60;4.90;;;;;;;;;;106590;1295;33934;-31
2022/09/23 08:05:21;;;;;;;6.40;4.20;;;;;;;;;;106478;1300;34480;-31
2022/09/23 08:07:50;;;;;;;7.40;3.70;;;;;;;;;;106683;1295;33887;-32
2022/09/23 08:10:19;;;;;;;6.70;5.00;;;;;;;;;;106691;1295;33930;-31
2022/09/23 08:12:48;;;;;;;6.50;4.50;;;;;;;;;;106736;1295;33879;-31
2022/09/23 08:15:17;;;;;;;6.50;3.80;;;;;;;;;;106408;1298;33555;-31
2022/09/23 08:17:47;;;;;;;5.90;3.60;;;;;;;;;;106632;1301;33070;-31
2022/09/23 08:23:01;;;;;;;5.70;3.40;;;;;;;;;;106639;1299;34068;-31
2022/09/23 08:25:31;;;;;;;5.60;3.60;;;;;;;;;;106518;1296;34357;-32
2022/09/23 08:28:01;;;;;;;6.70;4.10;;;;;;;;;;106392;1300;182112;-31
2022/09/23 08:30:31;;;;;;;8.40;3.50;;;;;;;;;;106551;1301;33323;-32
2022/09/23 08:33:00;;;;;;;6.60;4.20;;;;;;;;;;106490;1295;34133;-31
2022/09/23 08:35:29;;;;;;;7.80;3.80;;;;;;;;;;106472;1299;33728;-30
2022/09/23 08:37:58;;;;;;;5.90;3.40;;;;;;;;;;106328;1301;33173;-30
2022/09/23 08:40:28;;;;;;;9.00;3.70;;;;;;;;;;106400;1297;34323;-30
2022/09/23 08:43:00;;;;;;;7.60;3.50;;;;;;;;;;106426;1300;33089;-30
2022/09/23 08:45:30;;;;;;;6.60;3.90;;;;;;;;;;106438;1297;33946;-30
2022/09/23 08:48:05;;;;;;;6.00;3.20;;;;;;;;;;106593;1298;33348;-30
2022/09/23 08:50:37;;;;;;;7.00;3.70;;;;;;;;;;106631;1299;33111;-30
2022/09/23 08:53:13;;;;;;;6.30;3.20;;;;;;;;;;106679;1298;34254;-30
2022/09/23 08:55:46;;;;;;;6.90;3.30;;;;;;;;;;106495;1295;33932;-30
2022/09/23 08:58:23;;;;;;;5.20;3.00;;;;;;;;;;106426;1296;46307;-30
2022/09/23 09:00:59;;;;;;;6.20;3.20;;;;;;;;;;106490;1295;33823;-30
2022/09/23 09:03:33;;;;;;;6.10;3.30;;;;;;;;;;106425;1303;33572;-30
2022/09/23 09:06:02;;;;;;;6.40;2.80;;;;;;;;;;106439;1296;33854;-30
2022/09/23 09:08:33;;;;;;;5.80;2.70;;;;;;;;;;106332;1298;34963;-30
2022/09/23 09:11:03;;;;;;;5.70;3.00;;;;;;;;;;106422;1300;33825;-30
2022/09/23 09:13:42;;;;;;;7.50;2.90;;;;;;;;;;106472;1301;34385;-31
2022/09/23 09:16:21;;;;;;;5.60;2.80;;;;;;;;;;106447;1295;33466;-31
2022/09/23 09:18:53;;;;;;;5.30;2.70;;;;;;;;;;106738;1296;47294;-31
2022/09/23 09:21:24;;;;;;;5.30;2.60;;;;;;;;;;106634;1295;35232;-31
2022/09/23 09:23:55;;;;;;;5.30;2.30;;;;;;;;;;106806;1301;33549;-30
2022/09/23 09:26:26;;;;;;;5.50;2.60;;;;;;;;;;106780;1298;33688;-30
2022/09/23 09:28:59;;;;;;;4.80;2.50;;;;;;;;;;106550;1301;45980;-30
2022/09/23 09:31:31;;;;;;;5.20;2.30;;;;;;;;;;106650;1298;33923;-30
2022/09/23 09:34:03;;;;;;;7.50;2.60;;;;;;;;;;106686;1294;34123;-30
2022/09/23 09:36:39;;;;;;;5.30;2.60;;;;;;;;;;106699;1296;33849;-30
2022/09/23 09:39:11;;;;;;;6.20;2.40;;;;;;;;;;106773;1295;47191;-30
2022/09/23 09:41:45;;;;;;;5.60;2.50;;;;;;;;;;106710;1300;33454;-30
2022/09/23 09:44:23;;;;;;;4.50;2.40;;;;;;;;;;106732;1295;34376;-30
2022/09/23 09:47:07;;;;;;;5.90;2.40;;;;;;;;;;106708;1295;34119;-30
2022/09/23 09:49:41;;;;;;;5.30;2.40;;;;;;;;;;106567;1298;47570;-30
2022/09/23 09:52:19;;;;;;;4.70;2.40;;;;;;;;;;106560;1297;33559;-30
2022/09/23 09:54:48;;;;;;;5.70;2.30;;;;;;;;;;106544;1300;34041;-31
2022/09/23 09:57:20;;;;;;;5.30;2.50;;;;;;;;;;106525;1295;35003;-30
2022/09/23 09:59:49;;;;;;;5.60;2.50;;;;;;;;;;106741;1295;45903;-31
2022/09/23 10:02:23;;;;;;;5.30;2.30;;;;;;;;;;106571;1296;34035;-30
2022/09/23 10:05:00;;;;;;;4.30;2.10;;;;;;;;;;106531;1298;33377;-30
2022/09/23 10:07:30;;;;;;;4.80;2.30;;;;;;;;;;106656;1295;33774;-30
2022/09/23 10:10:17;;;;;;;5.00;2.10;;;;;;;;;;106527;1298;33637;-30
2022/09/23 10:12:48;;;;;;;5.20;2.10;;;;;;;;;;107586;1300;32964;-30
2022/09/23 10:15:30;;;;;;;4.70;2.10;;;;;;;;;;106565;1295;33865;-31
2022/09/23 10:18:01;;;;;;;4.30;1.90;;;;;;;;;;106416;1295;33834;-31
2022/09/23 10:20:37;;;;;;;4.40;2.10;;;;;;;;;;106591;1299;46151;-30
2022/09/23 10:23:08;;;;;;;4.50;2.10;;;;;;;;;;106574;1296;33739;-30
2022/09/23 10:25:38;;;;;;;4.20;2.20;;;;;;;;;;106393;1295;33570;-30
2022/09/23 10:28:24;;;;;;;15.80;6.90;;;;;;;;;;106482;1297;34066;-30
2022/09/23 10:31:03;;;;;;;44.90;20.50;;;;;;;;;;106705;1298;46674;-30
2022/09/23 10:33:32;;;;;;;54.20;22.20;;;;;;;;;;106678;1295;34194;-30
2022/09/23 10:36:01;;;;;;;47.70;22.50;;;;;;;;;;106525;1298;33697;-30
2022/09/23 10:38:30;;;;;;;48.10;22.80;;;;;;;;;;106746;1295;34303;-30
2022/09/23 10:46:47;;;;;;;38.30;17.40;;;;;;;;;;106620;1303;34142;-30
2022/09/23 10:49:37;;;;;;;36.80;16.40;;;;;;;;;;106614;1296;34088;-30
2022/09/23 10:52:26;;;;;;;36.60;18.70;;;;;;;;;;106756;1295;34165;-30
2022/09/23 10:55:01;;;;;;;35.10;17.00;;;;;;;;;;106771;1302;33639;-31
2022/09/23 10:57:39;;;;;;;31.00;15.50;;;;;;;;;;106758;1295;33140;-31
2022/09/23 11:00:18;;;;;;;35.60;15.70;;;;;;;;;;106660;1295;34505;-31
2022/09/23 11:02:56;;;;;;;32.00;15.40;;;;;;;;;;106631;1295;34400;-31
2022/09/23 11:05:31;;;;;;;29.80;14.80;;;;;;;;;;106600;1299;33567;-31
2022/09/23 11:08:06;;;;;;;29.40;13.70;;;;;;;;;;106613;1295;34609;-31
2022/09/23 11:10:50;;;;;;;23.50;11.60;;;;;;;;;;106674;1295;34358;-31
2022/09/23 11:13:28;;;;;;;26.70;11.60;;;;;;;;;;106781;1296;34208;-31
2022/09/23 11:16:02;;;;;;;23.70;11.60;;;;;;;;;;106784;1295;33530;-31
2022/09/23 11:18:47;;;;;;;20.20;9.70;;;;;;;;;;106798;1298;34458;-31
2022/09/23 11:21:26;;;;;;;24.70;11.60;;;;;;;;;;106615;1295;34124;-31
2022/09/23 11:24:04;;;;;;;22.00;10.80;;;;;;;;;;106623;1297;33517;-31
2022/09/23 11:26:39;;;;;;;20.30;11.00;;;;;;;;;;106591;1295;34526;-31
2022/09/23 11:29:13;;;;;;;21.30;10.20;;;;;;;;;;106614;1295;33907;-31
2022/09/23 11:31:47;;;;;;;21.20;9.70;;;;;;;;;;106643;1295;34348;-30
2022/09/23 11:34:24;;;;;;;18.20;8.60;;;;;;;;;;106730;1301;34109;-30
2022/09/23 11:36:57;;;;;;;18.60;9.60;;;;;;;;;;106778;1295;33863;-31
2022/09/23 11:39:28;;;;;;;18.30;8.90;;;;;;;;;;106752;1295;34347;-31
2022/09/23 11:41:59;;;;;;;18.90;9.20;;;;;;;;;;106723;1295;34359;-31
2022/09/23 11:44:31;;;;;;;17.20;8.50;;;;;;;;;;106832;1294;34430;-31
2022/09/23 11:47:07;;;;;;;19.20;8.40;;;;;;;;;;106758;1295;34135;-30
2022/09/23 11:49:38;;;;;;;16.00;8.00;;;;;;;;;;106835;1295;33731;-30
2022/09/23 11:52:10;;;;;;;17.60;7.90;;;;;;;;;;106755;1295;34176;-30
2022/09/23 11:54:43;;;;;;;15.90;6.90;;;;;;;;;;106743;1295;34358;-30
2022/09/23 11:57:15;;;;;;;16.30;8.20;;;;;;;;;;106713;1298;33754;-30
2022/09/23 11:59:47;;;;;;;12.80;6.30;;;;;;;;;;106758;1295;34296;-31
2022/09/23 12:02:20;;;;;;;14.00;6.60;;;;;;;;;;106628;1295;34623;-31
2022/09/23 12:04:56;;;;;;;12.80;6.20;;;;;;;;;;106677;1301;33258;-31
2022/09/23 12:07:28;;;;;;;12.90;6.20;;;;;;;;;;106557;1295;34120;-31
2022/09/23 12:10:02;;;;;;;14.10;6.20;;;;;;;;;;106631;1295;34191;-31
2022/09/23 12:12:35;;;;;;;15.20;6.50;;;;;;;;;;106720;1295;34110;-31
2022/09/23 12:15:06;;;;;;;12.40;5.40;;;;;;;;;;106738;1295;34216;-30
2022/09/23 12:17:56;;;;;;;12.20;5.20;;;;;;;;;;106572;1295;34135;-31
2022/09/23 12:20:47;;;;;;;12.10;5.40;;;;;;;;;;106589;1290;33796;-31
2022/09/23 12:23:26;;;;;;;10.80;5.10;;;;;;;;;;106377;1298;40917;-31
2022/09/23 12:26:03;;;;;;;9.70;4.40;;;;;;;;;;106322;1297;34146;-31
2022/09/23 12:28:43;;;;;;;8.70;4.10;;;;;;;;;;106646;1294;34248;-31
2022/09/23 12:31:15;;;;;;;8.60;3.80;;;;;;;;;;106426;1297;33199;-31
2022/09/23 12:33:50;;;;;;;8.90;4.10;;;;;;;;;;106567;1296;41528;-31
2022/09/23 12:36:25;;;;;;;9.30;3.90;;;;;;;;;;106590;1295;34585;-31
2022/09/23 12:39:02;;;;;;;7.60;3.50;;;;;;;;;;106594;1295;34069;-31
2022/09/23 12:41:36;;;;;;;8.00;3.70;;;;;;;;;;106549;1295;33974;-31
2022/09/23 12:44:04;;;;;;;;;;;;;;;;;;106593;1295;34201;-30
2022/09/23 12:46:33;;;;;;;8.30;3.60;;;;;;;;;;106573;1294;34142;-30
2022/09/23 12:49:03;;;;;;;7.20;3.30;;;;;;;;;;106699;1296;33568;-30
2022/09/23 12:51:33;;;;;;;8.00;3.50;;;;;;;;;;106796;1297;33107;-30
2022/09/23 12:54:19;;;;;;;9.00;3.30;;;;;;;;;;106569;1297;34135;-30
2022/09/23 12:57:04;;;;;;;9.10;3.70;;;;;;;;;;106609;1298;34567;-30
2022/09/23 12:59:53;;;;;;;8.90;3.70;;;;;;;;;;106572;1303;33652;-30
2022/09/23 13:02:31;;;;;;;8.20;3.30;;;;;;;;;;106601;1295;33858;-30
2022/09/23 13:07:58;;;;;;;6.30;2.80;;;;;;;;;;106431;1301;34362;-30
2022/09/23 13:10:28;;;;;;;7.30;2.90;;;;;;;;;;106803;1295;34119;-31
2022/09/23 13:12:58;;;;;;;7.30;3.10;;;;;;;;;;106731;1295;33861;-31
2022/09/23 13:15:30;;;;;;;6.50;3.00;;;;;;;;;;106737;1295;34221;-29
2022/09/23 13:18:16;;;;;;;7.20;3.10;;;;;;;;;;106708;1295;33953;-32
2022/09/23 13:20:47;;;;;;;6.90;3.00;;;;;;;;;;106701;1295;33467;-33
2022/09/23 13:23:24;;;;;;;6.80;2.90;;;;;;;;;;106598;1295;34225;-32
2022/09/23 13:25:54;;;;;;;5.90;3.00;;;;;;;;;;106486;1300;33747;-32
2022/09/23 13:28:31;;;;;;;7.60;3.30;;;;;;;;;;106505;1297;34710;-32
2022/09/23 13:31:05;;;;;;;6.90;2.50;;;;;;;;;;106532;1295;34093;-32
2022/09/23 13:33:38;;;;;;;6.90;2.70;;;;;;;;;;106615;1293;33991;-32
2022/09/23 13:36:14;;;;;;;5.80;2.90;;;;;;;;;;106730;1297;33565;-32
2022/09/23 13:38:45;;;;;;;6.30;2.50;;;;;;;;;;106746;1295;34114;-32
2022/09/23 13:41:16;;;;;;;6.60;2.60;;;;;;;;;;106806;1293;34011;-32
2022/09/23 13:43:48;;;;;;;7.10;2.70;;;;;;;;;;106455;1301;34283;-34
2022/09/23 13:46:20;;;;;;;5.90;2.60;;;;;;;;;;106708;1295;34155;-35
2022/09/23 13:48:53;;;;;;;6.20;2.60;;;;;;;;;;106722;1302;34417;-34
2022/09/23 13:51:21;;;;;;;;;;;;;;;;;;106726;1295;33216;-33
2022/09/23 13:53:55;;;;;;;5.40;2.40;;;;;;;;;;106699;1299;34251;-33
2022/09/23 13:56:24;;;;;;;5.20;2.20;;;;;;;;;;106756;1295;34265;-33
2022/09/23 13:58:55;;;;;;;4.90;2.20;;;;;;;;;;106673;1295;34673;-34
2022/09/23 14:01:31;;;;;;;6.40;2.00;;;;;;;;;;106759;1295;33984;-32
2022/09/23 14:04:02;;;;;;;4.20;1.90;;;;;;;;;;106729;1294;33129;-32
2022/09/23 14:06:32;;;;;;;5.10;2.00;;;;;;;;;;106816;1297;33583;-32
2022/09/23 14:09:03;;;;;;;4.50;1.80;;;;;;;;;;106787;1298;33504;-32
2022/09/23 14:11:35;;;;;;;4.90;2.00;;;;;;;;;;106829;1297;33482;-32
2022/09/23 14:14:05;;;;;;;5.40;1.90;;;;;;;;;;106700;1295;33900;-32
2022/09/23 14:16:40;;;;;;;4.70;2.30;;;;;;;;;;106711;1295;34443;-32
2022/09/23 14:19:13;;;;;;;5.20;2.00;;;;;;;;;;106735;1302;34133;-32
2022/09/23 14:21:43;;;;;;;4.00;1.80;;;;;;;;;;106721;1295;34130;-32
2022/09/23 14:24:20;;;;;;;5.10;1.90;;;;;;;;;;106648;1298;33972;-32
2022/09/23 14:26:50;;;;;;;4.90;1.90;;;;;;;;;;106584;1295;34262;-32
2022/09/23 14:29:24;;;;;;;4.20;1.50;;;;;;;;;;106589;1295;33572;-32
2022/09/23 14:31:57;;;;;;;4.10;1.90;;;;;;;;;;106537;1297;34149;-32
2022/09/23 14:34:46;;;;;;;5.70;1.50;;;;;;;;;;106598;1295;35132;-32
2022/09/23 14:40:13;;;;;;;3.90;1.60;;;;;;;;;;106658;1299;33105;-32
2022/09/23 14:42:43;;;;;;;4.10;1.50;;;;;;;;;;106741;1299;34304;-32
2022/09/23 14:45:15;;;;;;;4.00;1.60;;;;;;;;;;106793;1297;33579;-32
2022/09/23 14:47:46;;;;;;;3.90;1.40;;;;;;;;;;106775;1295;34104;-32
2022/09/23 14:53:29;;;;;;;4.50;1.60;;;;;;;;;;106758;1297;33570;-32
2022/09/23 14:56:10;;;;;;;3.80;1.60;;;;;;;;;;106618;1295;33536;-32
2022/09/23 14:58:43;;;;;;;3.90;1.40;;;;;;;;;;106738;1298;33425;-32
2022/09/23 15:01:26;;;;;;;4.30;1.50;;;;;;;;;;106753;1295;34672;-32
2022/09/23 15:03:57;;;;;;;3.80;1.50;;;;;;;;;;106663;1300;34404;-32
2022/09/23 15:06:27;;;;;;;3.30;1.50;;;;;;;;;;106832;1298;33625;-31
2022/09/23 15:08:56;;;;;;;3.10;1.40;;;;;;;;;;106793;1295;33897;-32
2022/09/23 15:11:25;;;;;;;3.50;1.50;;;;;;;;;;106765;1295;34356;-31
2022/09/23 15:13:55;;;;;;;3.80;1.50;;;;;;;;;;106854;1295;34129;-32
2022/09/23 15:16:27;;;;;;;4.00;1.40;;;;;;;;;;106729;1295;34325;-32